Mc Cook Ben Nelson Regional Airport
KMCK : now visible

Airfield :











YOU CAN JOIN US ON...

 
LOGIN :

Register | Disclaimer

   EN    FR    IT 

 









Legend :    VFR   Marginal VFR   IFR   Intensive IFR   Very Intensive IFR
Visi :
Ceiling :
>= 8 km
>= 3000ft
5 to 8 km
1000 to 3000 ft
1500m to 5 km
500 to 1000 ft
800 to 1500m
200 to 500 ft
< 800m
< 200 ft
Symbols :   Thunderstorms  Fog  Heavy snow  Heavy precipitations  Wind > 20 kt






- Airport Elevation : 2583 ft


KMCK - Mc Cook Ben Nelson Regional

CURRENT METAR :
  • 221453Z AUTO 01012KT 10SM OVC006 06/05 A2985 RMK AO2 SLP114 T00610050 53017

EXPIRED METARs :
  • 221353Z AUTO 03012KT 8SM OVC005 06/04 A2981 RMK AO2 SLP101 T00610044
  • 221253Z AUTO 04009KT 10SM OVC005 06/05 A2980 RMK AO2 SLP095 T00610050

TAF KMCK
Valid from the 22 at 12:00 until the 23 at 12:00 UTC


221200Z 2212/2312 04008KT 3SM BR BKN003
FM221600 35013KT 5SM BR OVC006
FM221700 35014G22KT P6SM OVC010
FM222100 36020G28KT P6SM BKN025
FM230200 35020G30KT P6SM BKN050
FM230800 34012KT P6SM BKN015
FM231100 35011KT P6SM BKN025
KZDV FIR / North America



MET'MAP, your aeronautical weather chart ! - Copyright ORBIFLY December 2007 - Disclaimer

ORBIFLY MET'MAP TEAM :

Programming & Development : Alexandra Zaïnal
Concept & original design : Baudouin d'Aumeries
Assistance for programming : Marc-Olivier Méhu
Technical & hardware support : Manuel Goepfert

Contact : metmap@orbifly.com




SOURCES & CREDITS :

   NOAA       Earth
Advisory